Hollowayville, Illinois
Current Conditions -  °F | °C
As of 4:35 PM on Sunday 23 Nov 2014 (Local Time) from KVYS Reporting Station
Moderate Rain Moderate Rain  
Wind Chill: 51°   Ceiling: 500
Heat Index: 51°   Visibility: 5mi
Dew Point: 49°   Wind: 10mph
Humidity: 95%   Direction: 140°SE
Pressure: 29.38"   Gusts: NA
Location:  41.3609°N, 89.3981°W
Report Text: KVYS 232235Z AUTO 14009KT 5SM RA OVC005 10/10 A2938 RMK AO2 P0005 T01030095
Loading
Personal Weather Stations






























Interactive Weather Map New forecast layout! Learn more

10-Day Weather Forecast

Advertisements
Track Severe Weather on mobile